createdAt,value
2017-09-30T00:01:14.427Z,59.73
2017-09-30T00:05:17.895Z,59.75
2017-09-30T00:09:21.350Z,59.74
2017-09-30T00:13:25.595Z,59.75
2017-09-30T00:17:29.050Z,59.75
2017-09-30T00:21:32.547Z,59.75
2017-09-30T00:25:36.004Z,59.77
2017-09-30T00:29:40.251Z,59.77
2017-09-30T00:33:43.703Z,59.79
2017-09-30T00:37:47.182Z,59.78
2017-09-30T00:41:50.630Z,59.77
2017-09-30T00:45:54.104Z,59.79
2017-09-30T00:49:57.558Z,59.79
2017-09-30T00:54:01.807Z,59.79
2017-09-30T00:58:05.246Z,59.80
2017-09-30T01:02:08.735Z,59.80
2017-09-30T01:06:12.194Z,59.79
2017-09-30T01:10:15.712Z,59.80
2017-09-30T01:14:19.939Z,59.82
2017-09-30T01:18:24.192Z,59.82
2017-09-30T01:22:27.635Z,59.82
2017-09-30T01:26:31.117Z,59.81
2017-09-30T01:30:34.573Z,59.83
2017-09-30T01:34:38.048Z,59.82
2017-09-30T01:38:41.492Z,59.83
2017-09-30T01:42:45.747Z,59.83
2017-09-30T01:46:49.191Z,59.83
2017-09-30T01:50:52.957Z,59.85
2017-09-30T01:54:56.417Z,59.85
2017-09-30T01:59:00.179Z,59.87
2017-09-30T02:03:03.626Z,59.87
2017-09-30T02:07:07.115Z,59.89
2017-09-30T02:11:10.568Z,59.88
2017-09-30T02:15:14.402Z,59.88
2017-09-30T02:19:18.613Z,59.89
2017-09-30T02:23:22.095Z,59.89
2017-09-30T02:27:25.543Z,59.90
2017-09-30T02:31:29.789Z,59.90
2017-09-30T02:35:33.243Z,59.91
2017-09-30T02:39:36.732Z,59.91
2017-09-30T02:43:40.182Z,59.91
2017-09-30T02:47:44.391Z,59.91
2017-09-30T02:51:47.837Z,59.91
2017-09-30T02:55:51.315Z,59.92
2017-09-30T02:59:54.769Z,59.93
2017-09-30T03:03:58.556Z,59.93
2017-09-30T03:08:02.808Z,59.93
2017-09-30T03:12:06.599Z,59.93
2017-09-30T03:16:10.827Z,59.93
2017-09-30T03:20:14.302Z,59.95
2017-09-30T03:24:17.780Z,59.95
2017-09-30T03:28:21.263Z,59.95
2017-09-30T03:32:24.715Z,59.95
2017-09-30T03:36:28.191Z,59.96
2017-09-30T03:40:31.643Z,59.96
2017-09-30T03:44:35.127Z,59.97
2017-09-30T03:48:38.586Z,59.97
2017-09-30T03:52:42.067Z,59.98
2017-09-30T03:56:45.523Z,59.98
2017-09-30T04:00:49.108Z,59.98
2017-09-30T04:04:53.325Z,59.99
2017-09-30T04:08:57.587Z,59.99
2017-09-30T04:13:01.065Z,59.98
2017-09-30T04:17:05.685Z,60.01
2017-09-30T04:21:09.901Z,60.00
2017-09-30T04:25:13.532Z,60.01
2017-09-30T04:29:17.755Z,60.01
2017-09-30T04:33:22.282Z,60.02
2017-09-30T04:37:26.495Z,59.99
2017-09-30T04:41:30.246Z,60.07
2017-09-30T04:45:33.702Z,60.09
2017-09-30T04:49:37.547Z,60.10
2017-09-30T04:53:41.787Z,60.13
2017-09-30T04:57:45.267Z,60.13
2017-09-30T05:01:48.722Z,60.13
2017-09-30T05:05:52.203Z,60.15
2017-09-30T05:09:55.659Z,60.14
2017-09-30T05:13:59.134Z,60.15
2017-09-30T05:18:02.594Z,60.15
2017-09-30T05:22:06.407Z,60.14
2017-09-30T05:26:09.872Z,60.16
2017-09-30T05:30:13.368Z,60.15
2017-09-30T05:34:16.798Z,60.12
2017-09-30T05:38:20.276Z,60.14
2017-09-30T05:42:23.742Z,60.13
2017-09-30T05:46:27.239Z,60.11
2017-09-30T05:50:30.727Z,60.19
2017-09-30T05:54:34.215Z,60.12
2017-09-30T05:58:37.678Z,60.20
2017-09-30T06:02:41.196Z,60.18
2017-09-30T06:06:45.406Z,60.16
2017-09-30T06:10:49.242Z,60.16
2017-09-30T06:14:53.466Z,60.24
2017-09-30T06:18:58.269Z,60.19
2017-09-30T06:23:01.729Z,60.20
2017-09-30T06:27:05.207Z,60.18
2017-09-30T06:31:08.666Z,60.18
2017-09-30T06:35:12.447Z,60.21
2017-09-30T06:39:16.658Z,60.18
2017-09-30T06:43:20.132Z,60.20
2017-09-30T06:47:23.598Z,60.20
2017-09-30T06:51:27.123Z,60.21
2017-09-30T06:55:30.577Z,60.25
2017-09-30T06:59:34.049Z,60.24
2017-09-30T07:03:37.508Z,60.22
2017-09-30T07:07:41.767Z,60.22
2017-09-30T07:11:45.206Z,60.25
2017-09-30T07:15:48.947Z,60.22
2017-09-30T07:19:52.407Z,60.23
2017-09-30T07:23:55.923Z,60.25
2017-09-30T07:27:59.374Z,60.26
2017-09-30T07:32:03.910Z,60.28
2017-09-30T07:36:08.122Z,60.29
2017-09-30T07:40:11.608Z,60.30
2017-09-30T07:44:15.074Z,60.31
2017-09-30T07:48:18.555Z,60.32
2017-09-30T07:52:22.774Z,60.31
2017-09-30T07:56:26.258Z,60.32
2017-09-30T08:00:29.729Z,60.32
2017-09-30T08:04:33.512Z,60.32
2017-09-30T08:08:38.367Z,60.32
2017-09-30T08:12:42.167Z,60.31
2017-09-30T08:16:46.391Z,60.30
2017-09-30T08:20:50.758Z,60.29
2017-09-30T08:24:54.210Z,60.40
2017-09-30T08:28:57.686Z,60.38
2017-09-30T08:33:01.134Z,60.39
2017-09-30T08:37:05.787Z,60.36
2017-09-30T08:41:10.004Z,60.38
2017-09-30T08:45:14.548Z,60.40
2017-09-30T08:49:17.987Z,60.40
2017-09-30T08:53:21.462Z,60.40
2017-09-30T08:57:24.916Z,60.39
2017-09-30T09:01:28.408Z,60.39
2017-09-30T09:05:31.850Z,60.45
2017-09-30T09:09:35.323Z,60.42
2017-09-30T09:13:38.775Z,60.41
2017-09-30T09:17:43.323Z,60.38
2017-09-30T09:21:47.547Z,60.39
2017-09-30T09:25:52.171Z,60.38
2017-09-30T09:29:56.387Z,60.35
2017-09-30T09:33:59.875Z,60.37
2017-09-30T09:38:03.332Z,60.37
2017-09-30T09:42:06.832Z,60.38
2017-09-30T09:46:10.321Z,60.47
2017-09-30T09:50:14.568Z,60.38
2017-09-30T09:54:18.019Z,60.34
2017-09-30T09:58:21.495Z,60.43
2017-09-30T10:02:24.947Z,60.38
2017-09-30T10:06:28.496Z,60.35
2017-09-30T10:10:32.719Z,60.38
2017-09-30T10:14:36.993Z,60.33
2017-09-30T10:18:40.447Z,60.38
2017-09-30T10:22:44.689Z,60.42
2017-09-30T10:26:48.143Z,60.43
2017-09-30T10:30:51.998Z,60.44
2017-09-30T10:34:56.205Z,60.42
2017-09-30T10:39:00.031Z,60.51
2017-09-30T10:43:04.247Z,60.46
2017-09-30T10:47:08.069Z,60.36
2017-09-30T10:51:12.250Z,60.37
2017-09-30T10:55:16.015Z,60.35
2017-09-30T10:59:20.245Z,60.39
2017-09-30T11:03:24.871Z,60.36
2017-09-30T11:07:29.102Z,60.39
2017-09-30T11:11:33.631Z,60.36
2017-09-30T11:15:37.874Z,60.35
2017-09-30T11:19:41.681Z,60.36
2017-09-30T11:23:45.130Z,60.35
2017-09-30T11:27:48.886Z,60.33
2017-09-30T11:31:53.099Z,60.32
2017-09-30T11:35:56.933Z,60.32
2017-09-30T11:40:01.287Z,60.30
2017-09-30T11:44:05.080Z,60.27
2017-09-30T11:48:09.308Z,60.27
2017-09-30T11:52:13.116Z,60.27
2017-09-30T11:56:17.329Z,60.30
2017-09-30T12:00:21.882Z,60.26
2017-09-30T12:04:25.340Z,60.20
2017-09-30T12:08:29.228Z,60.19
2017-09-30T12:12:32.860Z,60.18
2017-09-30T12:16:36.615Z,60.20
2017-09-30T12:20:40.830Z,60.29
2017-09-30T12:24:44.559Z,60.22
2017-09-30T12:28:48.782Z,60.31
2017-09-30T12:32:53.426Z,60.33
2017-09-30T12:36:56.884Z,60.44
2017-09-30T12:41:00.743Z,60.42
2017-09-30T12:45:05.035Z,60.47
2017-09-30T12:49:08.983Z,60.51
2017-09-30T12:53:13.309Z,60.55
2017-09-30T12:57:17.851Z,60.53
2017-09-30T13:01:22.054Z,60.55
2017-09-30T13:05:25.883Z,60.57
2017-09-30T13:09:30.113Z,60.58
2017-09-30T13:13:34.742Z,60.58
2017-09-30T13:17:38.958Z,60.50
2017-09-30T13:21:43.599Z,60.56
2017-09-30T13:25:47.814Z,62.27
2017-09-30T13:29:51.648Z,61.65
2017-09-30T13:33:55.883Z,62.92
2017-09-30T13:37:59.792Z,63.32
2017-09-30T13:42:03.261Z,63.93
2017-09-30T13:46:07.096Z,62.64
2017-09-30T13:50:10.554Z,63.19
2017-09-30T13:54:14.314Z,62.59
2017-09-30T13:58:17.771Z,63.20
2017-09-30T14:02:21.649Z,63.11
2017-09-30T14:06:25.868Z,62.60
2017-09-30T14:10:29.800Z,62.42
2017-09-30T14:14:34.027Z,62.44
2017-09-30T14:18:39.258Z,62.42
2017-09-30T14:22:43.474Z,62.26
2017-09-30T14:26:47.315Z,62.35
2017-09-30T14:30:51.544Z,62.25
2017-09-30T14:34:55.360Z,62.20
2017-09-30T14:38:58.831Z,62.18
2017-09-30T14:43:02.646Z,62.02
2017-09-30T14:47:06.115Z,61.98
2017-09-30T14:51:09.851Z,61.89
2017-09-30T14:55:13.295Z,61.89
2017-09-30T14:59:17.826Z,61.86
2017-09-30T15:03:22.072Z,61.80
2017-09-30T15:07:25.862Z,61.71
2017-09-30T15:15:49.172Z,61.61
2017-09-30T15:19:53.392Z,61.57
2017-09-30T15:23:57.912Z,61.54
2017-09-30T15:28:01.367Z,61.53
2017-09-30T15:32:05.150Z,61.51
2017-09-30T15:36:09.366Z,61.53
2017-09-30T15:40:13.916Z,61.47
2017-09-30T15:44:17.364Z,61.46
2017-09-30T15:48:21.125Z,61.38
2017-09-30T15:52:25.342Z,61.38
2017-09-30T15:56:29.174Z,61.45
2017-09-30T16:00:33.491Z,61.43
2017-09-30T16:04:38.030Z,61.41
2017-09-30T16:08:42.251Z,61.44
2017-09-30T16:12:46.783Z,61.44
2017-09-30T16:16:51.013Z,61.39
2017-09-30T16:20:55.514Z,61.39
2017-09-30T16:24:58.958Z,61.40
2017-09-30T16:29:03.483Z,61.41
2017-09-30T16:33:07.709Z,61.34
2017-09-30T16:37:12.247Z,61.30
2017-09-30T16:41:15.708Z,61.58
2017-09-30T16:45:19.455Z,61.67
2017-09-30T16:49:23.675Z,61.77
2017-09-30T16:53:28.230Z,61.74
2017-09-30T16:57:31.673Z,61.70
2017-09-30T17:01:35.442Z,61.68
2017-09-30T17:05:39.666Z,61.61
2017-09-30T17:09:44.183Z,61.61
2017-09-30T17:13:48.407Z,61.61
2017-09-30T17:17:52.946Z,61.56
2017-09-30T17:21:57.167Z,61.50
2017-09-30T17:26:01.666Z,61.50
2017-09-30T17:30:05.123Z,61.44
2017-09-30T17:34:08.930Z,61.38
2017-09-30T17:38:13.147Z,61.36
2017-09-30T17:42:17.690Z,61.35
2017-09-30T17:46:21.902Z,61.32
2017-09-30T17:50:26.453Z,61.29
2017-09-30T17:54:29.914Z,61.28
2017-09-30T17:58:33.663Z,61.26
2017-09-30T18:02:37.893Z,61.23
2017-09-30T18:06:41.683Z,61.19
2017-09-30T18:10:45.247Z,61.18
2017-09-30T18:14:49.047Z,61.14
2017-09-30T18:18:52.510Z,61.10
2017-09-30T18:22:56.346Z,61.08
2017-09-30T18:27:00.562Z,61.07
2017-09-30T18:31:04.397Z,61.04
2017-09-30T18:35:08.610Z,61.00
2017-09-30T18:39:13.165Z,60.97
2017-09-30T18:43:16.631Z,60.94
2017-09-30T18:47:20.472Z,60.94
2017-09-30T18:51:24.690Z,60.87
2017-09-30T18:55:29.239Z,60.84
2017-09-30T18:59:32.689Z,60.83
2017-09-30T19:03:36.422Z,60.79
2017-09-30T19:07:39.907Z,60.76
2017-09-30T19:11:43.675Z,60.72
2017-09-30T19:15:47.908Z,60.71
2017-09-30T19:19:51.642Z,60.67
2017-09-30T19:23:55.092Z,60.65
2017-09-30T19:27:58.944Z,60.63
2017-09-30T19:32:02.402Z,60.61
2017-09-30T19:36:06.196Z,60.58
2017-09-30T19:40:09.657Z,60.56
2017-09-30T19:44:14.302Z,60.54
2017-09-30T19:48:18.522Z,60.53
2017-09-30T19:52:23.060Z,60.49
2017-09-30T19:56:27.288Z,60.48
2017-09-30T20:00:31.096Z,60.46
2017-09-30T20:04:35.310Z,60.43
2017-09-30T20:08:39.855Z,60.40
2017-09-30T20:12:43.330Z,60.38
2017-09-30T20:16:47.181Z,60.37
2017-09-30T20:20:51.405Z,60.37
2017-09-30T20:24:56.035Z,60.30
2017-09-30T20:29:00.259Z,60.28
2017-09-30T20:33:04.757Z,60.26
2017-09-30T20:37:08.209Z,60.28
2017-09-30T20:41:12.018Z,60.22
2017-09-30T20:45:16.259Z,60.20
2017-09-30T20:49:20.052Z,60.18
2017-09-30T20:53:24.266Z,60.16
2017-09-30T20:57:28.101Z,60.12
2017-09-30T21:01:32.323Z,60.11
2017-09-30T21:05:36.135Z,60.08
2017-09-30T21:09:40.352Z,60.06
2017-09-30T21:13:44.903Z,60.04
2017-09-30T21:17:48.361Z,60.03
2017-09-30T21:21:52.118Z,59.96
2017-09-30T21:25:56.404Z,59.93
2017-09-30T21:30:00.157Z,59.92
2017-09-30T21:34:04.379Z,59.91
2017-09-30T21:38:08.911Z,59.91
2017-09-30T21:42:13.129Z,59.90
2017-09-30T21:46:17.671Z,59.91
2017-09-30T21:50:21.900Z,59.90
2017-09-30T21:54:26.521Z,59.89
2017-09-30T21:58:30.742Z,59.88
2017-09-30T22:02:35.288Z,59.87
2017-09-30T22:06:39.511Z,59.85
2017-09-30T22:10:44.047Z,59.84
2017-09-30T22:14:48.265Z,59.83
2017-09-30T22:18:52.808Z,59.82
2017-09-30T22:22:56.262Z,59.81
2017-09-30T22:27:00.019Z,59.79
2017-09-30T22:31:04.247Z,59.78
2017-09-30T22:35:08.755Z,59.78
2017-09-30T22:39:12.207Z,59.77
2017-09-30T22:43:16.003Z,59.77
2017-09-30T22:47:20.233Z,59.76
2017-09-30T22:51:24.046Z,59.75
2017-09-30T22:55:27.519Z,59.75
2017-09-30T22:59:31.367Z,59.72
2017-09-30T23:03:35.563Z,59.71
2017-09-30T23:07:39.402Z,59.70
2017-09-30T23:11:43.615Z,59.69
2017-09-30T23:15:48.173Z,59.69
2017-09-30T23:19:51.705Z,59.67
2017-09-30T23:23:55.590Z,59.65
2017-09-30T23:27:59.807Z,59.64
2017-09-30T23:32:04.346Z,59.62
2017-09-30T23:36:08.580Z,59.62
2017-09-30T23:40:12.383Z,59.61
2017-09-30T23:44:16.598Z,59.60
2017-09-30T23:48:21.147Z,59.59
2017-09-30T23:52:24.597Z,59.58
2017-09-30T23:56:28.358Z,59.57
